Time;durP1;ratioP1;P1;durP2;ratioP2;P2;SDS_P1;SDS_P2;PMS_P1;PMS_P2;Temp;Humidity;BMP_temperature;BMP_pressure;BME280_temperature;BME280_humidity;BME280_pressure;Samples;Min_cycle;Max_cycle;Signal;HPM_P1;HPM_P2
2021/06/13 00:00:14;;;;;;;19.65;10.68;;;;;;;;;;4879495;29;20085;-45
2021/06/13 00:02:42;;;;;;;13.07;9.35;;;;;;;;;;4879611;29;20021;-45
2021/06/13 00:05:09;;;;;;;7.38;5.22;;;;;;;;;;4879574;29;20033;-44
2021/06/13 00:07:34;;;;;;;9.50;6.57;;;;;;;;;;4879522;29;20028;-45
2021/06/13 00:10:00;;;;;;;19.75;10.68;;;;;;;;;;4879691;29;20033;-46
2021/06/13 00:12:25;;;;;;;18.92;11.73;;;;;;;;;;4879466;29;20587;-45
2021/06/13 00:14:51;;;;;;;24.15;11.32;;;;;;;;;;4879263;29;20076;-45
2021/06/13 00:17:17;;;;;;;23.50;13.45;;;;;;;;;;4879387;29;20055;-44
2021/06/13 00:19:43;;;;;;;17.25;9.60;;;;;;;;;;4879260;29;20476;-45
2021/06/13 00:22:08;;;;;;;14.40;7.38;;;;;;;;;;4879219;29;20069;-45
2021/06/13 00:24:34;;;;;;;11.55;6.97;;;;;;;;;;4879293;29;20028;-45
2021/06/13 00:26:59;;;;;;;7.75;6.20;;;;;;;;;;4879390;29;20362;-45
2021/06/13 00:29:24;;;;;;;10.70;6.35;;;;;;;;;;4879190;29;20021;-45
2021/06/13 00:31:50;;;;;;;11.60;6.93;;;;;;;;;;4877925;29;20037;-45
2021/06/13 00:34:15;;;;;;;9.65;6.20;;;;;;;;;;4879185;29;20040;-46
2021/06/13 00:36:41;;;;;;;8.20;5.78;;;;;;;;;;4878944;29;20453;-46
2021/06/13 00:39:06;;;;;;;7.90;6.13;;;;;;;;;;4878856;29;20037;-45
2021/06/13 00:41:32;;;;;;;10.90;6.00;;;;;;;;;;4879285;29;20075;-45
2021/06/13 00:43:57;;;;;;;7.43;5.55;;;;;;;;;;4878966;29;20028;-45
2021/06/13 00:46:22;;;;;;;7.60;6.07;;;;;;;;;;4878880;29;20477;-45
2021/06/13 00:48:48;;;;;;;4.60;4.03;;;;;;;;;;4877596;29;20029;-45
2021/06/13 00:51:13;;;;;;;7.47;4.15;;;;;;;;;;4877529;29;20033;-44
2021/06/13 00:53:39;;;;;;;11.73;4.30;;;;;;;;;;4878008;29;20501;-45
2021/06/13 00:56:08;;;;;;;6.45;4.65;;;;;;;;;;4878692;29;20472;-44
2021/06/13 00:58:34;;;;;;;4.32;3.47;;;;;;;;;;4878810;29;20055;-45
2021/06/13 01:01:01;;;;;;;9.13;3.92;;;;;;;;;;4877455;29;20021;-45
2021/06/13 01:03:30;;;;;;;3.70;3.13;;;;;;;;;;4877475;29;20036;-45
2021/06/13 01:05:56;;;;;;;3.92;3.50;;;;;;;;;;4877557;29;20032;-44
2021/06/13 01:08:41;;;;;;;4.10;3.08;;;;;;;;;;4878195;29;20033;-46
2021/06/13 01:11:25;;;;;;;3.53;2.80;;;;;;;;;;4878638;29;20036;-45
2021/06/13 01:13:52;;;;;;;4.35;3.42;;;;;;;;;;4877428;29;20081;-45
2021/06/13 01:16:20;;;;;;;3.60;2.60;;;;;;;;;;4878789;29;20061;-45
2021/06/13 01:18:49;;;;;;;3.95;2.92;;;;;;;;;;4877292;29;20063;-45
2021/06/13 01:21:23;;;;;;;4.35;3.08;;;;;;;;;;4878604;29;20293;-45
2021/06/13 01:24:21;;;;;;;4.68;3.53;;;;;;;;;;4878629;29;20463;-45
2021/06/13 01:26:58;;;;;;;3.10;2.80;;;;;;;;;;4876749;29;20064;-45
2021/06/13 01:29:27;;;;;;;3.30;2.47;;;;;;;;;;4877309;29;20029;-45
2021/06/13 01:31:54;;;;;;;4.00;2.72;;;;;;;;;;4878733;29;20033;-45
2021/06/13 01:34:26;;;;;;;5.30;2.55;;;;;;;;;;4878664;29;20052;-45
2021/06/13 01:36:53;;;;;;;6.40;2.85;;;;;;;;;;4877006;29;20040;-45
2021/06/13 01:39:24;;;;;;;4.18;2.88;;;;;;;;;;4861942;29;20527;-45
2021/06/13 01:41:52;;;;;;;5.22;3.33;;;;;;;;;;4878490;29;20084;-45
2021/06/13 01:44:19;;;;;;;7.43;3.85;;;;;;;;;;4877083;29;20056;-45
2021/06/13 01:46:48;;;;;;;4.18;3.33;;;;;;;;;;4877158;29;20085;-45
2021/06/13 01:49:16;;;;;;;3.80;3.33;;;;;;;;;;4878479;29;20025;-45
2021/06/13 01:51:43;;;;;;;4.13;3.30;;;;;;;;;;4878396;29;20499;-44
2021/06/13 01:54:09;;;;;;;6.22;3.88;;;;;;;;;;4878149;29;20022;-45
2021/06/13 01:56:42;;;;;;;5.82;4.13;;;;;;;;;;4878656;29;20040;-45
2021/06/13 01:59:08;;;;;;;7.47;2.95;;;;;;;;;;4876949;29;20033;-45
2021/06/13 02:01:45;;;;;;;3.85;2.88;;;;;;;;;;4877039;29;20169;-45
2021/06/13 02:04:12;;;;;;;4.20;3.03;;;;;;;;;;4876979;29;20033;-45
2021/06/13 02:06:50;;;;;;;7.65;3.08;;;;;;;;;;4876932;29;20021;-46
2021/06/13 02:09:22;;;;;;;4.97;3.50;;;;;;;;;;4876874;29;20044;-45
2021/06/13 02:11:53;;;;;;;7.38;2.97;;;;;;;;;;4877122;29;20039;-45
2021/06/13 02:14:23;;;;;;;4.55;3.15;;;;;;;;;;4876694;29;20074;-45
2021/06/13 02:16:56;;;;;;;4.20;3.67;;;;;;;;;;4862312;29;20515;-45
2021/06/13 02:19:25;;;;;;;5.85;3.20;;;;;;;;;;4878293;29;20025;-47
2021/06/13 02:21:58;;;;;;;3.47;2.50;;;;;;;;;;4879614;29;20037;-44
2021/06/13 02:24:24;;;;;;;5.70;3.15;;;;;;;;;;4881415;29;20089;-44
2021/06/13 02:26:50;;;;;;;6.70;3.65;;;;;;;;;;4881272;29;20388;-45
2021/06/13 02:29:16;;;;;;;4.43;3.58;;;;;;;;;;4879907;29;20536;-46
2021/06/13 02:31:43;;;;;;;5.03;3.38;;;;;;;;;;4880000;29;20037;-45
2021/06/13 02:34:09;;;;;;;4.90;3.25;;;;;;;;;;4879851;29;20085;-45
2021/06/13 02:36:35;;;;;;;6.10;3.53;;;;;;;;;;4881456;29;20036;-45
2021/06/13 02:39:07;;;;;;;4.35;3.20;;;;;;;;;;4879730;29;20116;-45
2021/06/13 02:41:33;;;;;;;4.82;3.58;;;;;;;;;;4881204;29;20094;-46
2021/06/13 02:43:59;;;;;;;14.00;3.60;;;;;;;;;;4881212;29;20027;-45
2021/06/13 02:46:32;;;;;;;5.28;3.50;;;;;;;;;;4881055;29;20029;-45
2021/06/13 02:48:58;;;;;;;6.35;3.30;;;;;;;;;;4881159;29;20036;-45
2021/06/13 02:51:31;;;;;;;8.18;3.05;;;;;;;;;;4880833;29;20037;-45
2021/06/13 02:53:57;;;;;;;3.35;3.05;;;;;;;;;;4881215;29;20037;-45
2021/06/13 02:56:48;;;;;;;4.18;3.17;;;;;;;;;;4880681;29;20127;-45
2021/06/13 02:59:29;;;;;;;4.72;3.22;;;;;;;;;;4879363;29;20026;-45
2021/06/13 03:01:57;;;;;;;3.97;3.58;;;;;;;;;;4881090;29;20049;-45
2021/06/13 03:04:22;;;;;;;4.65;3.25;;;;;;;;;;4880871;29;20097;-45
2021/06/13 03:06:55;;;;;;;6.15;2.83;;;;;;;;;;4880689;29;20033;-45
2021/06/13 03:09:25;;;;;;;10.70;4.32;;;;;;;;;;4880487;29;20060;-45
2021/06/13 03:11:53;;;;;;;5.07;3.60;;;;;;;;;;4879280;29;20040;-45
2021/06/13 03:14:21;;;;;;;7.97;3.53;;;;;;;;;;4879164;29;20033;-46
2021/06/13 03:16:47;;;;;;;4.82;3.38;;;;;;;;;;4880721;29;20048;-46
2021/06/13 03:19:13;;;;;;;5.60;3.53;;;;;;;;;;4879140;29;20029;-46
2021/06/13 03:21:39;;;;;;;5.47;3.15;;;;;;;;;;4880730;29;20084;-45
2021/06/13 03:24:05;;;;;;;5.63;4.38;;;;;;;;;;4880621;29;20066;-45
2021/06/13 03:26:31;;;;;;;6.60;4.43;;;;;;;;;;4879028;29;20025;-45
2021/06/13 03:28:57;;;;;;;6.47;4.20;;;;;;;;;;4878985;29;20056;-49
2021/06/13 03:31:25;;;;;;;4.70;3.70;;;;;;;;;;4863475;29;20017;-45
2021/06/13 03:33:53;;;;;;;7.13;3.75;;;;;;;;;;4880382;29;20041;-45
2021/06/13 03:36:19;;;;;;;4.22;3.17;;;;;;;;;;4880320;29;20093;-45
2021/06/13 03:38:47;;;;;;;8.43;4.05;;;;;;;;;;4878719;29;20060;-45
2021/06/13 03:41:14;;;;;;;4.15;3.38;;;;;;;;;;4879116;29;20392;-45
2021/06/13 03:43:40;;;;;;;4.35;3.25;;;;;;;;;;4880067;29;20068;-44
2021/06/13 03:46:06;;;;;;;4.70;3.50;;;;;;;;;;4879890;29;20013;-45
2021/06/13 03:48:32;;;;;;;5.47;3.42;;;;;;;;;;4879864;29;20085;-45
2021/06/13 03:50:58;;;;;;;10.32;4.10;;;;;;;;;;4880106;29;20024;-45
2021/06/13 03:53:23;;;;;;;5.45;3.83;;;;;;;;;;4879788;29;20037;-45
2021/06/13 03:55:49;;;;;;;7.80;4.25;;;;;;;;;;4879750;29;20487;-45
2021/06/13 03:58:15;;;;;;;6.03;3.55;;;;;;;;;;4879849;29;20033;-45
2021/06/13 04:00:43;;;;;;;5.88;4.25;;;;;;;;;;4879687;29;20460;-44
2021/06/13 04:03:09;;;;;;;4.93;3.70;;;;;;;;;;4879812;29;20021;-44
2021/06/13 04:05:40;;;;;;;4.45;3.78;;;;;;;;;;4878406;29;20029;-44
2021/06/13 04:08:06;;;;;;;4.30;3.63;;;;;;;;;;4879690;29;20177;-44
2021/06/13 04:10:32;;;;;;;4.55;3.78;;;;;;;;;;4879736;29;20032;-44
2021/06/13 04:12:58;;;;;;;4.55;3.15;;;;;;;;;;4879450;29;20037;-44
2021/06/13 04:15:25;;;;;;;5.65;3.72;;;;;;;;;;4879303;29;20029;-45
2021/06/13 04:17:50;;;;;;;8.52;3.20;;;;;;;;;;4879295;29;20540;-45
2021/06/13 04:20:16;;;;;;;5.43;3.30;;;;;;;;;;4878076;29;20081;-45
2021/06/13 04:22:42;;;;;;;8.63;3.53;;;;;;;;;;4877994;29;20037;-45
2021/06/13 04:25:09;;;;;;;7.97;3.58;;;;;;;;;;4879205;29;20036;-45
2021/06/13 04:27:35;;;;;;;5.45;3.17;;;;;;;;;;4879274;29;20031;-47
2021/06/13 04:30:00;;;;;;;5.88;4.07;;;;;;;;;;4879365;29;20040;-45
2021/06/13 04:32:26;;;;;;;4.35;3.30;;;;;;;;;;4879133;29;20064;-44
2021/06/13 04:34:51;;;;;;;6.07;3.60;;;;;;;;;;4879330;29;20426;-45
2021/06/13 04:37:17;;;;;;;5.90;3.15;;;;;;;;;;4878824;29;20049;-44
2021/06/13 04:39:43;;;;;;;5.32;3.95;;;;;;;;;;4879066;29;20029;-44
2021/06/13 04:42:09;;;;;;;3.88;3.28;;;;;;;;;;4878959;29;20037;-44
2021/06/13 04:44:35;;;;;;;5.15;3.60;;;;;;;;;;4878374;29;20086;-46
2021/06/13 04:47:01;;;;;;;5.70;3.53;;;;;;;;;;4879219;29;20029;-44
2021/06/13 04:49:26;;;;;;;4.07;3.42;;;;;;;;;;4878830;29;20392;-44
2021/06/13 04:51:54;;;;;;;3.78;3.30;;;;;;;;;;4878883;29;20096;-45
2021/06/13 04:54:38;;;;;;;5.22;3.95;;;;;;;;;;4878756;29;20080;-44
2021/06/13 04:57:09;;;;;;;5.13;4.18;;;;;;;;;;4878846;29;20503;-45
2021/06/13 04:59:34;;;;;;;8.82;4.07;;;;;;;;;;4878673;29;20089;-45
2021/06/13 05:02:00;;;;;;;10.57;4.63;;;;;;;;;;4879063;29;20021;-44
2021/06/13 05:04:25;;;;;;;5.00;3.95;;;;;;;;;;4878965;29;20053;-45
2021/06/13 05:06:51;;;;;;;4.72;3.72;;;;;;;;;;4878687;29;20025;-45
2021/06/13 05:09:16;;;;;;;6.00;3.47;;;;;;;;;;4878896;29;20075;-44
2021/06/13 05:11:42;;;;;;;6.20;3.33;;;;;;;;;;4878718;29;20029;-45
2021/06/13 05:14:07;;;;;;;6.57;4.10;;;;;;;;;;4878611;29;20037;-45
2021/06/13 05:16:33;;;;;;;4.32;3.10;;;;;;;;;;4878677;29;20029;-45
2021/06/13 05:18:59;;;;;;;5.50;3.45;;;;;;;;;;4877380;29;20511;-45
2021/06/13 05:21:24;;;;;;;4.15;3.38;;;;;;;;;;4878575;29;20047;-44
2021/06/13 05:23:49;;;;;;;4.85;3.95;;;;;;;;;;4878879;29;20041;-45
2021/06/13 05:26:15;;;;;;;6.50;3.38;;;;;;;;;;4878487;29;20028;-44
2021/06/13 05:28:40;;;;;;;5.47;3.58;;;;;;;;;;4878751;29;20033;-45
2021/06/13 05:31:06;;;;;;;7.90;3.60;;;;;;;;;;4878828;29;20032;-45
2021/06/13 05:33:31;;;;;;;5.25;4.05;;;;;;;;;;4877290;29;20416;-45
2021/06/13 05:35:58;;;;;;;5.13;4.32;;;;;;;;;;4878445;29;20060;-45
2021/06/13 05:38:23;;;;;;;5.25;3.95;;;;;;;;;;4877076;29;20060;-45
2021/06/13 05:40:49;;;;;;;6.35;4.20;;;;;;;;;;4878497;29;20037;-45
2021/06/13 05:43:14;;;;;;;5.15;4.07;;;;;;;;;;4878447;29;20025;-45
2021/06/13 05:45:40;;;;;;;4.45;3.80;;;;;;;;;;4878739;29;20025;-46
2021/06/13 05:48:06;;;;;;;4.85;3.85;;;;;;;;;;4878490;29;20490;-45
2021/06/13 05:50:32;;;;;;;12.65;4.78;;;;;;;;;;4878656;29;20457;-45
2021/06/13 05:52:57;;;;;;;5.38;4.38;;;;;;;;;;4878669;29;20025;-45
2021/06/13 05:55:23;;;;;;;7.65;4.03;;;;;;;;;;4880569;29;20380;-44
2021/06/13 05:57:49;;;;;;;6.72;4.30;;;;;;;;;;4880667;29;20033;-44
2021/06/13 06:00:16;;;;;;;5.00;4.22;;;;;;;;;;4882083;29;20116;-45
2021/06/13 06:02:42;;;;;;;5.25;3.85;;;;;;;;;;4881975;29;20037;-44
2021/06/13 06:05:08;;;;;;;6.30;4.07;;;;;;;;;;4881728;29;20061;-44
2021/06/13 06:07:34;;;;;;;6.07;3.92;;;;;;;;;;4881709;29;20055;-44
2021/06/13 06:09:59;;;;;;;5.63;3.95;;;;;;;;;;4881689;29;20520;-44
2021/06/13 06:12:25;;;;;;;4.53;3.83;;;;;;;;;;4881884;29;20039;-44
2021/06/13 06:14:51;;;;;;;7.30;4.18;;;;;;;;;;4881698;29;20033;-45
2021/06/13 06:17:16;;;;;;;6.97;4.25;;;;;;;;;;4881392;29;20032;-44
2021/06/13 06:19:42;;;;;;;9.38;5.30;;;;;;;;;;4881521;29;20025;-44
2021/06/13 06:22:07;;;;;;;6.40;4.07;;;;;;;;;;4881710;29;20033;-44
2021/06/13 06:24:33;;;;;;;5.00;4.28;;;;;;;;;;4881636;29;20025;-44
2021/06/13 06:26:58;;;;;;;5.35;3.80;;;;;;;;;;4881293;29;20562;-44
2021/06/13 06:29:24;;;;;;;5.03;4.03;;;;;;;;;;4881527;29;20025;-44
2021/06/13 06:31:49;;;;;;;5.93;4.32;;;;;;;;;;4881470;29;20444;-44
2021/06/13 06:34:15;;;;;;;7.03;4.30;;;;;;;;;;4881270;29;20433;-44
2021/06/13 06:36:41;;;;;;;9.35;3.90;;;;;;;;;;4881331;29;20049;-44
2021/06/13 06:39:07;;;;;;;5.50;4.78;;;;;;;;;;4879729;29;20058;-44
2021/06/13 06:41:32;;;;;;;6.40;4.03;;;;;;;;;;4879937;29;20033;-44
2021/06/13 06:43:58;;;;;;;4.90;4.03;;;;;;;;;;4881050;29;20021;-45
2021/06/13 06:46:24;;;;;;;5.47;4.65;;;;;;;;;;4880892;29;20602;-45
2021/06/13 06:48:49;;;;;;;5.53;3.50;;;;;;;;;;4880926;29;20025;-48
2021/06/13 06:51:15;;;;;;;6.68;4.45;;;;;;;;;;4880850;29;20168;-44
2021/06/13 06:53:41;;;;;;;6.57;4.30;;;;;;;;;;4881135;29;20100;-44
2021/06/13 06:56:07;;;;;;;10.02;5.30;;;;;;;;;;4880751;29;20124;-45
2021/06/13 06:58:32;;;;;;;6.28;4.53;;;;;;;;;;4880791;29;20053;-44
2021/06/13 07:00:58;;;;;;;5.80;4.03;;;;;;;;;;4880772;29;20040;-44
2021/06/13 07:03:23;;;;;;;5.57;3.88;;;;;;;;;;4880723;29;20017;-44
2021/06/13 07:05:48;;;;;;;4.97;3.88;;;;;;;;;;4880334;29;20440;-44
2021/06/13 07:08:14;;;;;;;4.63;3.80;;;;;;;;;;4880445;29;20017;-44
2021/06/13 07:10:39;;;;;;;5.28;4.10;;;;;;;;;;4880579;29;20140;-44
2021/06/13 07:13:05;;;;;;;6.30;5.20;;;;;;;;;;4880551;29;20022;-44
2021/06/13 07:15:30;;;;;;;5.35;4.35;;;;;;;;;;4880408;29;20101;-44
2021/06/13 07:17:56;;;;;;;6.32;4.57;;;;;;;;;;4880438;29;20017;-44
2021/06/13 07:20:21;;;;;;;6.75;4.63;;;;;;;;;;4880369;29;20029;-44
2021/06/13 07:22:47;;;;;;;6.70;4.57;;;;;;;;;;4880400;29;20021;-44
2021/06/13 07:25:12;;;;;;;7.18;4.68;;;;;;;;;;4880330;29;20052;-44
2021/06/13 07:27:38;;;;;;;6.25;4.80;;;;;;;;;;4880284;29;20024;-46
2021/06/13 07:30:05;;;;;;;7.25;3.90;;;;;;;;;;4880325;29;20037;-44
2021/06/13 07:32:30;;;;;;;10.38;5.45;;;;;;;;;;4880469;29;20031;-45
2021/06/13 07:34:56;;;;;;;6.72;4.32;;;;;;;;;;4880437;29;20041;-45
2021/06/13 07:37:21;;;;;;;9.55;4.50;;;;;;;;;;4879824;29;20049;-45
2021/06/13 07:39:46;;;;;;;7.65;4.95;;;;;;;;;;4880187;29;20033;-45
2021/06/13 07:42:12;;;;;;;10.20;4.57;;;;;;;;;;4879862;29;20119;-45
2021/06/13 07:44:37;;;;;;;5.70;4.63;;;;;;;;;;4880063;29;20071;-44
2021/06/13 07:47:03;;;;;;;4.32;3.70;;;;;;;;;;4878726;29;20021;-44
2021/06/13 07:49:29;;;;;;;6.28;4.25;;;;;;;;;;4879774;29;20396;-45
2021/06/13 07:51:54;;;;;;;6.63;4.55;;;;;;;;;;4879985;29;20021;-45
2021/06/13 07:54:20;;;;;;;11.88;4.13;;;;;;;;;;4879980;29;20041;-45
2021/06/13 07:56:45;;;;;;;10.05;5.30;;;;;;;;;;4880078;29;20108;-44
2021/06/13 07:59:11;;;;;;;6.13;3.95;;;;;;;;;;4879648;29;20472;-45
2021/06/13 08:01:36;;;;;;;7.20;4.60;;;;;;;;;;4879757;29;20425;-45
2021/06/13 08:04:03;;;;;;;7.18;4.88;;;;;;;;;;4879642;29;20025;-45
2021/06/13 08:06:28;;;;;;;5.68;4.70;;;;;;;;;;4879515;29;20084;-45
2021/06/13 08:08:54;;;;;;;5.70;4.55;;;;;;;;;;4878405;29;20033;-44
2021/06/13 08:11:19;;;;;;;6.68;4.80;;;;;;;;;;4879498;29;20061;-45
2021/06/13 08:13:44;;;;;;;7.20;4.43;;;;;;;;;;4878214;29;20033;-46
2021/06/13 08:16:10;;;;;;;6.00;4.28;;;;;;;;;;4879569;29;20132;-45
2021/06/13 08:18:35;;;;;;;5.05;3.63;;;;;;;;;;4878505;29;20025;-45
2021/06/13 08:21:01;;;;;;;6.32;3.92;;;;;;;;;;4879702;29;20021;-45
2021/06/13 08:23:26;;;;;;;5.47;4.10;;;;;;;;;;4879385;29;20040;-45
2021/06/13 08:25:52;;;;;;;10.15;4.93;;;;;;;;;;4879441;29;20060;-46
2021/06/13 08:28:18;;;;;;;3.47;3.17;;;;;;;;;;4879489;29;20035;-46
2021/06/13 08:30:44;;;;;;;8.65;4.05;;;;;;;;;;4879192;29;20024;-45
2021/06/13 08:33:10;;;;;;;5.18;3.90;;;;;;;;;;4879061;29;20036;-45
2021/06/13 08:35:35;;;;;;;5.75;4.07;;;;;;;;;;4879363;29;20033;-44
2021/06/13 08:38:03;;;;;;;5.70;4.50;;;;;;;;;;4878983;29;20060;-45
2021/06/13 08:40:28;;;;;;;5.43;3.63;;;;;;;;;;4879045;29;20040;-45
2021/06/13 08:42:54;;;;;;;4.97;3.88;;;;;;;;;;4879010;29;20393;-44
2021/06/13 08:45:19;;;;;;;4.45;3.50;;;;;;;;;;4879206;29;20024;-45
2021/06/13 08:47:47;;;;;;;4.18;3.58;;;;;;;;;;4879261;29;20028;-45
2021/06/13 08:50:12;;;;;;;6.22;3.83;;;;;;;;;;4878824;29;20081;-45
2021/06/13 08:52:38;;;;;;;5.97;4.07;;;;;;;;;;4878921;29;20060;-45
2021/06/13 08:55:07;;;;;;;4.07;3.63;;;;;;;;;;4878867;29;20036;-45
2021/06/13 08:57:32;;;;;;;4.90;3.45;;;;;;;;;;4879073;29;20029;-44
2021/06/13 08:59:57;;;;;;;5.10;3.83;;;;;;;;;;4878846;29;20105;-44
2021/06/13 09:02:23;;;;;;;5.78;4.07;;;;;;;;;;4877540;29;20447;-45
2021/06/13 09:04:48;;;;;;;4.72;3.63;;;;;;;;;;4879100;29;20029;-45
2021/06/13 09:07:15;;;;;;;5.10;3.38;;;;;;;;;;4878668;29;20169;-45
2021/06/13 09:09:41;;;;;;;4.30;3.10;;;;;;;;;;4878748;29;20025;-45
2021/06/13 09:12:07;;;;;;;4.03;3.00;;;;;;;;;;4878744;29;20107;-45
2021/06/13 09:14:42;;;;;;;4.05;3.35;;;;;;;;;;4878505;29;20494;-46
2021/06/13 09:17:11;;;;;;;4.50;3.15;;;;;;;;;;4878627;29;20436;-45
2021/06/13 09:19:36;;;;;;;3.92;3.10;;;;;;;;;;4878657;29;20107;-44
2021/06/13 09:22:09;;;;;;;4.40;3.03;;;;;;;;;;4878619;29;20114;-46
2021/06/13 09:24:35;;;;;;;4.72;3.92;;;;;;;;;;4878644;29;20117;-45
2021/06/13 09:27:07;;;;;;;4.57;3.35;;;;;;;;;;4878512;29;20104;-44
2021/06/13 09:29:52;;;;;;;3.90;3.22;;;;;;;;;;4879543;29;20614;-44
2021/06/13 09:32:18;;;;;;;4.22;3.75;;;;;;;;;;4882292;29;20492;-44
2021/06/13 09:34:44;;;;;;;2.80;2.60;;;;;;;;;;4882257;29;20048;-44
2021/06/13 09:37:09;;;;;;;3.72;3.05;;;;;;;;;;4882139;29;20529;-44
2021/06/13 09:39:35;;;;;;;3.28;2.72;;;;;;;;;;4881053;29;20021;-44
2021/06/13 09:42:08;;;;;;;3.28;2.90;;;;;;;;;;4882187;29;20033;-44
2021/06/13 09:44:35;;;;;;;3.83;2.92;;;;;;;;;;4882215;29;20112;-44
2021/06/13 09:47:03;;;;;;;3.85;3.17;;;;;;;;;;4882108;29;20032;-44
2021/06/13 09:49:41;;;;;;;4.53;3.47;;;;;;;;;;4881997;29;20446;-44
2021/06/13 09:52:07;;;;;;;2.95;2.65;;;;;;;;;;4882272;29;20393;-44
2021/06/13 09:54:33;;;;;;;3.70;3.10;;;;;;;;;;4882251;29;20025;-44
2021/06/13 09:57:01;;;;;;;4.70;3.17;;;;;;;;;;4881905;29;20092;-44
2021/06/13 09:59:32;;;;;;;2.97;2.67;;;;;;;;;;4881860;29;20025;-45
2021/06/13 10:01:59;;;;;;;5.53;2.88;;;;;;;;;;4881841;29;20043;-44
2021/06/13 10:04:39;;;;;;;5.85;2.63;;;;;;;;;;4881635;29;20017;-44
2021/06/13 10:07:14;;;;;;;3.70;2.78;;;;;;;;;;4881986;29;20093;-44
2021/06/13 10:09:40;;;;;;;3.15;2.67;;;;;;;;;;4880515;29;20029;-45
2021/06/13 10:12:07;;;;;;;4.15;3.03;;;;;;;;;;4881665;29;20032;-44
2021/06/13 10:14:32;;;;;;;3.30;2.88;;;;;;;;;;4881558;29;20077;-44
2021/06/13 10:16:58;;;;;;;3.60;2.95;;;;;;;;;;4881611;29;20028;-44
2021/06/13 10:19:24;;;;;;;3.45;3.15;;;;;;;;;;4881444;29;20139;-45
2021/06/13 10:22:03;;;;;;;3.80;3.33;;;;;;;;;;4880362;29;20020;-45
2021/06/13 10:24:37;;;;;;;5.13;3.00;;;;;;;;;;4881489;29;20025;-44
2021/06/13 10:27:10;;;;;;;4.25;3.10;;;;;;;;;;4881242;29;20048;-45
2021/06/13 10:29:35;;;;;;;;;;;;;;;;;;4881858;29;20064;-45
2021/06/13 10:32:02;;;;;;;3.38;3.03;;;;;;;;;;4881587;29;20338;-44
2021/06/13 10:34:28;;;;;;;4.93;3.58;;;;;;;;;;4881176;29;20075;-45
2021/06/13 10:36:54;;;;;;;3.40;2.83;;;;;;;;;;4880994;29;20090;-45
2021/06/13 10:39:21;;;;;;;4.40;3.17;;;;;;;;;;4881104;29;20029;-45
2021/06/13 10:41:47;;;;;;;3.45;3.05;;;;;;;;;;4880167;29;20067;-45
2021/06/13 10:44:16;;;;;;;3.47;2.70;;;;;;;;;;4881287;29;20052;-45
2021/06/13 10:46:46;;;;;;;4.07;3.13;;;;;;;;;;4881085;29;20456;-45
2021/06/13 10:49:27;;;;;;;2.90;2.63;;;;;;;;;;4880857;29;20037;-44
2021/06/13 10:52:03;;;;;;;3.95;2.40;;;;;;;;;;4881299;29;20071;-45
2021/06/13 10:54:30;;;;;;;5.65;3.25;;;;;;;;;;4880721;29;20488;-44
2021/06/13 10:57:15;;;;;;;3.83;3.03;;;;;;;;;;4880860;29;20037;-45
2021/06/13 10:59:42;;;;;;;4.75;3.22;;;;;;;;;;4880821;29;20025;-45
2021/06/13 11:02:09;;;;;;;3.25;2.95;;;;;;;;;;4880682;29;20025;-44
2021/06/13 11:04:43;;;;;;;3.05;2.53;;;;;;;;;;4880821;29;20472;-46
2021/06/13 11:07:10;;;;;;;2.78;2.38;;;;;;;;;;4880668;29;20033;-45
2021/06/13 11:12:49;;;;;;;5.32;4.00;;;;;;;;;;4882909;29;20052;-44
2021/06/13 11:18:17;;;;;;;3.40;2.70;;;;;;;;;;4882762;29;20045;-44
2021/06/13 11:21:07;;;;;;;5.88;3.08;;;;;;;;;;4880751;29;20037;-45
2021/06/13 11:23:33;;;;;;;3.88;3.40;;;;;;;;;;4880420;29;20040;-44
2021/06/13 11:25:59;;;;;;;3.75;2.67;;;;;;;;;;4880389;29;20021;-44
2021/06/13 11:28:30;;;;;;;5.05;2.95;;;;;;;;;;4879113;29;20029;-44
2021/06/13 11:30:55;;;;;;;4.38;3.25;;;;;;;;;;4880179;29;20036;-44
2021/06/13 11:33:40;;;;;;;4.13;2.95;;;;;;;;;;4880189;29;20065;-44
2021/06/13 11:36:26;;;;;;;3.67;2.72;;;;;;;;;;4880147;29;20080;-44
2021/06/13 11:39:04;;;;;;;3.83;3.13;;;;;;;;;;4879877;29;20059;-44
2021/06/13 11:41:30;;;;;;;4.10;3.00;;;;;;;;;;4878527;29;20048;-44
2021/06/13 11:43:56;;;;;;;3.17;2.75;;;;;;;;;;4880046;29;20053;-44
2021/06/13 11:46:32;;;;;;;7.22;3.15;;;;;;;;;;4879970;29;20390;-44
2021/06/13 11:48:58;;;;;;;3.30;3.05;;;;;;;;;;4878729;29;20057;-44
2021/06/13 11:51:23;;;;;;;4.38;3.13;;;;;;;;;;4879868;29;20056;-44
2021/06/13 11:53:53;;;;;;;2.95;2.50;;;;;;;;;;4879748;29;20032;-44
2021/06/13 11:56:31;;;;;;;4.13;3.22;;;;;;;;;;4879733;29;20124;-44
2021/06/13 11:59:02;;;;;;;10.60;3.45;;;;;;;;;;4879973;29;20101;-44
2021/06/13 12:01:28;;;;;;;3.67;2.97;;;;;;;;;;4879673;29;20064;-44
2021/06/13 12:03:55;;;;;;;3.80;2.97;;;;;;;;;;4879754;29;20568;-44
2021/06/13 12:06:21;;;;;;;4.63;3.17;;;;;;;;;;4879792;29;20048;-44
2021/06/13 12:08:48;;;;;;;4.60;3.45;;;;;;;;;;4879661;29;20107;-44
2021/06/13 12:11:49;;;;;;;4.47;3.83;;;;;;;;;;4878357;29;20043;-43
2021/06/13 12:14:18;;;;;;;3.25;2.90;;;;;;;;;;4895770;29;20531;-44
2021/06/13 12:16:43;;;;;;;10.70;3.17;;;;;;;;;;4882567;29;20041;-44
2021/06/13 12:19:09;;;;;;;3.97;2.67;;;;;;;;;;4879414;29;20029;-44
2021/06/13 12:21:34;;;;;;;4.93;2.72;;;;;;;;;;4879419;29;20031;-45
2021/06/13 12:29:41;;;;;;;4.43;3.17;;;;;;;;;;4878135;29;20040;-44
2021/06/13 12:32:13;;;;;;;3.72;3.13;;;;;;;;;;4879297;29;20013;-45
2021/06/13 12:34:38;;;;;;;3.90;3.10;;;;;;;;;;4879432;29;20031;-44
2021/06/13 12:37:05;;;;;;;3.67;3.28;;;;;;;;;;4879186;29;20407;-45
2021/06/13 12:39:31;;;;;;;7.97;3.72;;;;;;;;;;4879391;29;20036;-46
2021/06/13 12:42:08;;;;;;;5.60;4.43;;;;;;;;;;4879050;29;20427;-44
2021/06/13 12:44:34;;;;;;;4.20;3.33;;;;;;;;;;4879036;29;20022;-45
2021/06/13 12:46:59;;;;;;;3.92;3.47;;;;;;;;;;4879264;29;20116;-45
2021/06/13 12:49:24;;;;;;;7.38;3.67;;;;;;;;;;4878951;29;20107;-46
2021/06/13 12:51:50;;;;;;;5.78;2.97;;;;;;;;;;4879187;29;20073;-45
2021/06/13 12:54:15;;;;;;;8.75;3.97;;;;;;;;;;4878806;29;20460;-45
2021/06/13 12:56:42;;;;;;;5.43;3.50;;;;;;;;;;4879016;29;20039;-45
2021/06/13 12:59:07;;;;;;;4.65;3.47;;;;;;;;;;4878931;29;20037;-44
2021/06/13 13:01:33;;;;;;;4.45;3.33;;;;;;;;;;4878802;29;20035;-45
2021/06/13 13:04:00;;;;;;;5.75;3.30;;;;;;;;;;4878312;29;20025;-46
2021/06/13 13:06:26;;;;;;;4.30;3.40;;;;;;;;;;4878966;29;20021;-45
2021/06/13 13:08:51;;;;;;;4.90;2.50;;;;;;;;;;4879011;29;20469;-45
2021/06/13 13:11:20;;;;;;;4.47;3.30;;;;;;;;;;4878741;29;20035;-46
2021/06/13 13:13:49;;;;;;;3.50;3.20;;;;;;;;;;4878751;29;20037;-45
2021/06/13 13:16:19;;;;;;;4.07;3.00;;;;;;;;;;4878554;29;20029;-45
2021/06/13 13:18:44;;;;;;;3.35;3.05;;;;;;;;;;4878640;29;20160;-45
2021/06/13 13:21:10;;;;;;;4.60;3.53;;;;;;;;;;4878886;29;20464;-45
2021/06/13 13:23:43;;;;;;;4.30;3.70;;;;;;;;;;4878584;29;20614;-45
2021/06/13 13:26:08;;;;;;;3.90;2.90;;;;;;;;;;4878653;29;20029;-45
2021/06/13 13:28:35;;;;;;;3.35;3.03;;;;;;;;;;4877298;29;20025;-46
2021/06/13 13:31:21;;;;;;;5.45;4.15;;;;;;;;;;4878495;29;20025;-46
2021/06/13 13:33:59;;;;;;;7.03;3.55;;;;;;;;;;4878419;29;20041;-44
2021/06/13 13:36:28;;;;;;;4.03;3.10;;;;;;;;;;4878491;29;20037;-45
2021/06/13 13:38:55;;;;;;;4.13;3.03;;;;;;;;;;4878327;29;20052;-46
2021/06/13 13:41:20;;;;;;;4.18;3.78;;;;;;;;;;4878504;29;20064;-45
2021/06/13 13:43:57;;;;;;;3.65;3.20;;;;;;;;;;4877291;29;20093;-46
2021/06/13 13:46:27;;;;;;;4.55;3.70;;;;;;;;;;4878596;29;20033;-45
2021/06/13 13:48:53;;;;;;;5.72;3.63;;;;;;;;;;4878409;29;20044;-45
2021/06/13 13:51:19;;;;;;;4.60;3.63;;;;;;;;;;4878294;29;20029;-45
2021/06/13 13:53:47;;;;;;;3.20;2.90;;;;;;;;;;4878646;29;20484;-45
2021/06/13 13:56:13;;;;;;;3.83;3.25;;;;;;;;;;4878164;29;20454;-45
2021/06/13 13:58:39;;;;;;;4.95;3.70;;;;;;;;;;4878277;29;20045;-45
2021/06/13 14:01:04;;;;;;;6.05;3.78;;;;;;;;;;4878416;29;20111;-44
2021/06/13 14:03:34;;;;;;;4.43;3.17;;;;;;;;;;4878261;29;20851;-45
2021/06/13 14:06:00;;;;;;;3.83;3.42;;;;;;;;;;4878272;29;20033;-44
2021/06/13 14:08:26;;;;;;;3.03;2.70;;;;;;;;;;4878192;29;20481;-45
2021/06/13 14:10:52;;;;;;;4.03;3.63;;;;;;;;;;4878551;29;20079;-46
2021/06/13 14:13:18;;;;;;;5.43;3.65;;;;;;;;;;4878401;29;20017;-45
2021/06/13 14:15:44;;;;;;;4.03;3.60;;;;;;;;;;4879243;29;20147;-45
2021/06/13 14:18:09;;;;;;;5.22;3.70;;;;;;;;;;4881909;29;20534;-44
2021/06/13 14:20:35;;;;;;;4.97;3.88;;;;;;;;;;4881724;29;20544;-45
2021/06/13 14:23:01;;;;;;;4.20;2.90;;;;;;;;;;4881634;29;20090;-45
2021/06/13 14:25:26;;;;;;;3.90;3.35;;;;;;;;;;4880219;29;20033;-45
2021/06/13 14:27:52;;;;;;;4.35;2.95;;;;;;;;;;4881560;29;20021;-45
2021/06/13 14:30:18;;;;;;;3.85;2.95;;;;;;;;;;4881680;29;20058;-45
2021/06/13 14:32:45;;;;;;;5.43;3.40;;;;;;;;;;4881387;29;20134;-45
2021/06/13 14:35:11;;;;;;;4.20;2.67;;;;;;;;;;4881195;29;20051;-44
2021/06/13 14:37:36;;;;;;;3.17;2.88;;;;;;;;;;4881311;29;20049;-45
2021/06/13 14:40:06;;;;;;;3.75;2.95;;;;;;;;;;4881288;29;20165;-45
2021/06/13 14:42:32;;;;;;;4.40;3.50;;;;;;;;;;4881100;29;20041;-46
2021/06/13 14:44:57;;;;;;;4.57;3.80;;;;;;;;;;4881394;29;20076;-45
2021/06/13 14:47:23;;;;;;;4.90;3.38;;;;;;;;;;4881004;29;20032;-45
2021/06/13 14:49:48;;;;;;;4.68;3.47;;;;;;;;;;4880985;29;20025;-44
2021/06/13 14:52:14;;;;;;;5.35;3.45;;;;;;;;;;4864153;29;20025;-45
2021/06/13 14:54:39;;;;;;;3.08;2.83;;;;;;;;;;4881028;29;20429;-45
2021/06/13 14:57:07;;;;;;;6.47;3.08;;;;;;;;;;4879996;29;20049;-45